Time;durP1;ratioP1;P1;durP2;ratioP2;P2;SDS_P1;SDS_P2;PMS_P1;PMS_P2;Temp;Humidity;BMP_temperature;BMP_pressure;BME280_temperature;BME280_humidity;BME280_pressure;Samples;Min_cycle;Max_cycle;Signal;HPM_P1;HPM_P2
2021/05/06 00:06:32;;;;;;;;;;;;;;;1.98;79.14;100592.16;5034426;28;1656;-78
2021/05/06 00:11:37;;;;;;;;;;;;;;;1.91;80.05;100583.53;5046038;28;1592;-79
2021/05/06 00:31:02;;;;;;;;;;;;;;;1.62;81.25;100574.31;5046391;28;1619;-78
2021/05/06 00:33:22;;;;;;;;;;;;;;;1.61;81.65;100575.44;5045789;28;1866;-79
2021/05/06 00:35:48;;;;;;;;;;;;;;;1.64;81.36;100565.88;5030868;28;1683;-79
2021/05/06 00:38:21;;;;;;;;;;;;;;;1.59;81.74;100572.22;5045276;28;1319;-78
2021/05/06 00:46:21;;;;;;;;;;;;;;;1.52;82.00;100563.56;5040700;28;1566;-78
2021/05/06 00:54:33;;;;;;;;;;;;;;;1.44;81.93;100569.66;5044754;28;1879;-78
2021/05/06 00:59:57;;;;;;;;;;;;;;;1.38;82.52;100565.34;5027863;28;1638;-78
2021/05/06 01:05:18;;;;;;;;;;;;;;;1.35;82.96;100564.03;5030544;28;1569;-79
2021/05/06 01:12:52;;;;;;;;;;;;;;;1.29;82.98;100570.63;5047845;28;1876;-79
2021/05/06 01:15:18;;;;;;;;;;;;;;;1.29;83.04;100567.91;5059443;28;1947;-78
2021/05/06 01:17:43;;;;;;;;;;;;;;;1.31;83.24;100571.13;5045572;28;956;-78
2021/05/06 01:20:10;;;;;;;;;;;;;;;1.30;83.28;100566.81;5043653;28;1694;-78
2021/05/06 01:22:35;;;;;;;;;;;;;;;1.28;83.15;100567.09;5042275;28;1911;-79
2021/05/06 01:25:01;;;;;;;;;;;;;;;1.20;83.61;100567.72;5040191;28;1611;-78
2021/05/06 01:27:52;;;;;;;;;;;;;;;1.17;83.76;100559.31;5026332;28;892;-78
2021/05/06 01:32:51;;;;;;;;;;;;;;;1.19;83.89;100566.09;5043929;28;2205;-79
2021/05/06 01:35:22;;;;;;;;;;;;;;;1.12;84.05;100565.63;5044916;28;1422;-78
2021/05/06 01:40:46;;;;;;;;;;;;;;;1.01;84.90;100566.81;5025317;28;1612;-78
2021/05/06 01:43:39;;;;;;;;;;;;;;;0.96;85.02;100570.41;5026738;28;2067;-78
2021/05/06 01:59:59;;;;;;;;;;;;;;;0.96;85.96;100562.22;5033326;28;1520;-78
2021/05/06 02:02:24;;;;;;;;;;;;;;;0.97;85.82;100563.03;5041768;28;1796;-78
2021/05/06 02:04:49;;;;;;;;;;;;;;;0.94;85.89;100559.81;5025922;28;1895;-78
2021/05/06 02:07:15;;;;;;;;;;;;;;;0.90;86.15;100557.94;5040068;28;2177;-78
2021/05/06 02:09:40;;;;;;;;;;;;;;;0.85;86.29;100558.81;5047832;28;1812;-78
2021/05/06 02:12:09;;;;;;;;;;;;;;;0.84;86.26;100559.09;5049099;28;881;-78
2021/05/06 02:14:34;;;;;;;;;;;;;;;0.84;86.62;100559.09;5048932;28;1902;-78
2021/05/06 02:16:59;;;;;;;;;;;;;;;0.90;86.71;100557.94;5049159;28;1552;-78
2021/05/06 02:19:32;;;;;;;;;;;;;;;0.85;86.74;100545.22;5049685;28;1690;-79
2021/05/06 02:22:05;;;;;;;;;;;;;;;0.77;87.04;100551.25;5049494;28;1900;-78
2021/05/06 02:24:31;;;;;;;;;;;;;;;0.71;87.41;100553.22;5049228;28;849;-78
2021/05/06 02:26:57;;;;;;;;;;;;;;;0.75;87.73;100551.53;5048154;28;1669;-79
2021/05/06 02:29:22;;;;;;;;;;;;;;;0.82;87.76;100553.94;5061543;28;1228;-78
2021/05/06 02:31:47;;;;;;;;;;;;;;;0.81;88.03;100541.41;5031946;28;1631;-78
2021/05/06 02:34:12;;;;;;;;;;;;;;;0.84;87.88;100546.28;5039509;28;1910;-79
2021/05/06 02:36:38;;;;;;;;;;;;;;;0.82;87.70;100548.50;5046449;28;1851;-78
2021/05/06 02:39:04;;;;;;;;;;;;;;;0.83;88.04;100546.56;5044531;28;1897;-81
2021/05/06 02:41:30;;;;;;;;;;;;;;;0.83;88.20;100549.28;5046120;28;813;-78
2021/05/06 02:43:55;;;;;;;;;;;;;;;0.77;87.92;100540.38;5045368;28;743;-79
2021/05/06 02:46:20;;;;;;;;;;;;;;;0.73;88.36;100542.88;5045909;28;880;-78
2021/05/06 02:48:46;;;;;;;;;;;;;;;0.74;88.47;100544.50;5037698;28;1718;-79
2021/05/06 02:51:12;;;;;;;;;;;;;;;0.82;88.61;100543.06;5032291;28;1813;-78
2021/05/06 02:53:44;;;;;;;;;;;;;;;0.77;88.26;100537.66;5047695;28;1886;-79
2021/05/06 02:56:20;;;;;;;;;;;;;;;0.66;88.15;100538.88;5047098;28;1341;-79
2021/05/06 03:04:04;;;;;;;;;;;;;;;0.67;89.48;100532.31;5047820;28;1881;-78
2021/05/06 03:06:33;;;;;;;;;;;;;;;0.62;89.41;100537.78;5044025;28;1920;-78
2021/05/06 03:09:05;;;;;;;;;;;;;;;0.66;89.55;100531.50;5028665;28;1304;-79
2021/05/06 03:11:46;;;;;;;;;;;;;;;0.65;89.50;100527.16;5028586;28;1723;-78
2021/05/06 03:24:54;;;;;;;;;;;;;;;0.62;89.73;100529.63;5048901;28;659;-78
2021/05/06 03:27:21;;;;;;;;;;;;;;;0.64;90.13;100541.88;5062651;28;1656;-79
2021/05/06 03:30:42;;;;;;;;;;;;;;;0.65;90.01;100532.59;5045793;28;1635;-78
2021/05/06 03:32:49;;;;;;;;;;;;;;;0.67;90.15;100533.13;5033549;28;1871;-78
2021/05/06 03:43:59;;;;;;;;;;;;;;;0.95;90.75;100530.69;5045918;28;1643;-78
2021/05/06 03:49:17;;;;;;;;;;;;;;;1.01;89.46;100531.47;5046547;28;1694;-78
2021/05/06 04:16:34;;;;;;;;;;;;;;;1.18;88.57;100533.72;5043313;28;1658;-79
2021/05/06 04:19:15;;;;;;;;;;;;;;;1.20;88.68;100543.25;5028693;28;1277;-78
2021/05/06 04:37:50;;;;;;;;;;;;;;;1.63;87.35;100543.31;5043372;28;1953;-78
2021/05/06 04:40:30;;;;;;;;;;;;;;;1.72;87.55;100539.94;5045010;28;1605;-78
2021/05/06 05:07:06;;;;;;;;;;;;;;;2.49;84.36;100533.41;5033000;28;1448;-79
2021/05/06 05:12:11;;;;;;;;;;;;;;;2.67;82.70;100529.84;5027919;28;836;-78
2021/05/06 05:17:52;;;;;;;;;;;;;;;2.85;80.77;100525.44;5047655;28;682;-79
2021/05/06 05:25:49;;;;;;;;;;;;;;;3.26;81.16;100529.34;5016394;28;1650;-78
2021/05/06 05:28:14;;;;;;;;;;;;;;;3.31;79.35;100527.31;5034564;28;1201;-78
2021/05/06 05:30:44;;;;;;;;;;;;;;;3.40;78.59;100532.88;5044448;28;1647;-78
2021/05/06 05:33:18;;;;;;;;;;;;;;;3.46;79.40;100531.69;5048030;28;1881;-79
2021/05/06 05:43:41;;;;;;;;;;;;;;;3.74;76.94;100542.59;5031286;28;825;-79
2021/05/06 05:46:43;;;;;;;;;;;;;;;3.85;77.91;100546.72;5042424;28;1832;-78
2021/05/06 05:56:42;;;;;;;;;;;;;;;4.11;74.77;100538.78;5050321;28;2888;-78
2021/05/06 05:59:07;;;;;;;;;;;;;;;4.17;75.55;100544.13;5034596;28;1193;-78
2021/05/06 06:01:33;;;;;;;;;;;;;;;4.40;75.34;100545.00;5034301;28;858;-79
2021/05/06 06:03:58;;;;;;;;;;;;;;;5.28;76.82;100539.75;5049422;28;1950;-79
2021/05/06 06:06:24;;;;;;;;;;;;;;;6.35;73.32;100536.94;5056123;28;1828;-78
2021/05/06 06:08:50;;;;;;;;;;;;;;;7.10;69.79;100533.94;5052634;28;1907;-79
2021/05/06 06:11:16;;;;;;;;;;;;;;;7.48;65.30;100550.44;5052355;28;983;-78
2021/05/06 06:13:43;;;;;;;;;;;;;;;7.67;64.95;100541.00;5042515;28;2798;-78
2021/05/06 06:18:51;;;;;;;;;;;;;;;8.93;60.37;100532.75;5042622;28;1891;-79
2021/05/06 06:21:27;;;;;;;;;;;;;;;9.63;58.21;100531.13;5022932;28;1784;-78
2021/05/06 06:23:53;;;;;;;;;;;;;;;10.10;57.10;100542.44;5039418;28;856;-77
2021/05/06 06:26:19;;;;;;;;;;;;;;;10.12;59.88;100534.66;5038484;28;2079;-77
2021/05/06 06:28:47;;;;;;;;;;;;;;;9.82;54.46;100542.38;5040268;28;1802;-78
2021/05/06 06:33:49;;;;;;;;;;;;;;;9.88;56.20;100542.94;5021744;28;1886;-79
2021/05/06 06:36:17;;;;;;;;;;;;;;;9.91;55.30;100536.72;5023925;28;1801;-78
2021/05/06 06:38:42;;;;;;;;;;;;;;;10.62;53.36;100540.03;5040993;28;1213;-78
2021/05/06 06:41:12;;;;;;;;;;;;;;;10.94;51.97;100540.13;5036508;28;1299;-78
2021/05/06 06:43:38;;;;;;;;;;;;;;;10.75;55.79;100535.28;5039858;28;892;-79
2021/05/06 06:46:04;;;;;;;;;;;;;;;11.58;51.61;100529.91;5041990;28;1808;-79
2021/05/06 06:48:30;;;;;;;;;;;;;;;12.18;53.04;100535.25;5040567;28;2071;-79
2021/05/06 06:50:55;;;;;;;;;;;;;;;12.60;48.18;100531.78;5038537;28;2042;-78
2021/05/06 06:53:21;;;;;;;;;;;;;;;12.32;50.62;100537.50;5039906;28;1890;-78
2021/05/06 06:55:46;;;;;;;;;;;;;;;12.58;49.88;100534.13;5037394;28;797;-77
2021/05/06 06:58:14;;;;;;;;;;;;;;;13.98;45.83;100533.78;5036742;28;1854;-77
2021/05/06 07:00:41;;;;;;;;;;;;;;;14.01;46.00;100526.69;5037250;28;929;-78
2021/05/06 07:03:06;;;;;;;;;;;;;;;14.56;42.58;100532.56;5041897;28;1050;-78
2021/05/06 07:05:32;;;;;;;;;;;;;;;14.84;45.39;100532.09;5038633;28;1678;-78
2021/05/06 07:08:21;;;;;;;;;;;;;;;17.27;39.22;100524.84;5037874;28;1871;-78
2021/05/06 07:10:48;;;;;;;;;;;;;;;17.21;37.26;100529.22;5039290;28;837;-79
2021/05/06 07:13:16;;;;;;;;;;;;;;;15.96;36.57;100530.31;5040622;28;2094;-79
2021/05/06 07:16:05;;;;;;;;;;;;;;;16.72;42.92;100531.47;5042862;28;889;-78
2021/05/06 07:18:31;;;;;;;;;;;;;;;16.46;40.89;100527.00;5043564;28;1973;-79
2021/05/06 07:20:58;;;;;;;;;;;;;;;17.04;39.75;100525.22;5045897;28;1875;-80
2021/05/06 07:23:25;;;;;;;;;;;;;;;17.71;41.63;100520.84;5046598;28;2182;-79
2021/05/06 07:25:52;;;;;;;;;;;;;;;16.89;40.78;100532.75;5045706;28;1838;-80
2021/05/06 07:28:29;;;;;;;;;;;;;;;17.37;37.55;100537.19;5043155;28;1913;-80
2021/05/06 07:30:54;;;;;;;;;;;;;;;18.14;35.34;100531.19;5021362;28;1645;-79
2021/05/06 07:33:20;;;;;;;;;;;;;;;16.75;36.20;100536.28;5026257;28;1990;-78
2021/05/06 07:35:45;;;;;;;;;;;;;;;16.11;37.54;100531.22;5024269;28;540289;-77
2021/05/06 07:38:11;;;;;;;;;;;;;;;15.39;40.44;100530.66;5043365;28;2067;-79
2021/05/06 07:40:38;;;;;;;;;;;;;;;13.63;41.53;100545.13;5044046;28;884;-79
2021/05/06 07:43:04;;;;;;;;;;;;;;;13.25;46.63;100539.31;5044727;28;1670;-79
2021/05/06 07:45:30;;;;;;;;;;;;;;;15.41;38.97;100531.06;5043221;28;797;-79
2021/05/06 07:47:57;;;;;;;;;;;;;;;15.74;38.55;100534.91;5042145;28;2028;-79
2021/05/06 07:50:22;;;;;;;;;;;;;;;15.69;42.79;100536.06;5040527;28;1908;-79
2021/05/06 07:52:50;;;;;;;;;;;;;;;17.22;37.96;100522.47;5040159;28;1989;-78
2021/05/06 07:55:16;;;;;;;;;;;;;;;18.76;37.41;100530.53;5042772;28;870;-79
2021/05/06 07:57:41;;;;;;;;;;;;;;;19.88;34.36;100516.53;5042604;28;1008;-78
2021/05/06 08:00:12;;;;;;;;;;;;;;;19.44;32.54;100511.72;5057223;28;1308;-79
2021/05/06 08:02:38;;;;;;;;;;;;;;;19.41;33.85;100509.75;5039237;28;1409;-79
2021/05/06 08:05:04;;;;;;;;;;;;;;;18.60;39.26;100516.22;5042716;28;832;-79
2021/05/06 08:07:29;;;;;;;;;;;;;;;19.58;37.33;100516.41;5039738;28;1949;-79
2021/05/06 08:09:54;;;;;;;;;;;;;;;17.77;31.81;100519.25;5041083;28;1933;-78
2021/05/06 08:12:21;;;;;;;;;;;;;;;17.58;36.84;100519.66;5044868;28;884;-79
2021/05/06 08:14:47;;;;;;;;;;;;;;;19.01;30.22;100512.03;5041440;28;1930;-77
2021/05/06 08:17:12;;;;;;;;;;;;;;;19.27;34.76;100517.03;5038756;28;895;-78
2021/05/06 08:19:38;;;;;;;;;;;;;;;19.43;30.57;100521.31;5037487;28;1190;-78
2021/05/06 08:22:03;;;;;;;;;;;;;;;20.00;33.14;100526.44;5036807;28;2338;-78
2021/05/06 08:24:29;;;;;;;;;;;;;;;19.93;28.33;100526.50;5039524;28;1919;-80
2021/05/06 08:26:54;;;;;;;;;;;;;;;18.07;31.76;100532.00;5040867;28;2030;-78
2021/05/06 08:29:20;;;;;;;;;;;;;;;18.66;29.17;100533.38;5040010;28;1872;-79
2021/05/06 08:31:45;;;;;;;;;;;;;;;19.59;31.10;100540.38;5055550;28;1981;-78
2021/05/06 08:34:10;;;;;;;;;;;;;;;19.99;29.67;100530.44;5051151;28;1875;-79
2021/05/06 08:36:36;;;;;;;;;;;;;;;19.56;32.74;100522.41;5049363;28;1797;-78
2021/05/06 08:39:03;;;;;;;;;;;;;;;19.16;32.70;100524.72;5055134;28;1253;-79
2021/05/06 08:41:29;;;;;;;;;;;;;;;18.33;33.99;100532.72;5057078;28;1819;-78
2021/05/06 08:44:00;;;;;;;;;;;;;;;19.40;29.50;100527.75;5046403;28;1805;-78
2021/05/06 08:46:33;;;;;;;;;;;;;;;18.65;29.88;100537.38;5034616;28;2005;-77
2021/05/06 08:49:00;;;;;;;;;;;;;;;20.95;28.94;100527.66;5033513;28;1269;-79
2021/05/06 08:51:27;;;;;;;;;;;;;;;21.36;27.73;100532.25;5036119;28;2083;-77
2021/05/06 08:53:53;;;;;;;;;;;;;;;17.52;29.64;100538.81;5031852;28;2458;-78
2021/05/06 08:56:18;;;;;;;;;;;;;;;18.14;32.06;100533.97;5036076;28;2028;-78
2021/05/06 08:58:43;;;;;;;;;;;;;;;21.37;25.58;100525.44;5034583;28;1189;-78
2021/05/06 09:01:09;;;;;;;;;;;;;;;21.85;28.38;100522.66;5036186;28;879;-78
2021/05/06 09:03:34;;;;;;;;;;;;;;;20.87;30.30;100528.19;5036921;28;1003;-78
2021/05/06 09:06:19;;;;;;;;;;;;;;;20.38;27.17;100537.63;5038396;28;1828;-79
2021/05/06 09:08:56;;;;;;;;;;;;;;;15.67;30.70;100537.66;5036355;28;1194;-78
2021/05/06 09:11:29;;;;;;;;;;;;;;;17.09;30.33;100534.00;5036211;28;868;-78
2021/05/06 09:14:02;;;;;;;;;;;;;;;20.41;27.64;100519.94;5036370;28;1898;-78
2021/05/06 09:16:42;;;;;;;;;;;;;;;23.71;23.93;100525.47;5034942;28;2057;-77
2021/05/06 09:19:15;;;;;;;;;;;;;;;21.84;24.82;100529.50;5034936;28;2014;-78
2021/05/06 09:21:43;;;;;;;;;;;;;;;20.72;22.81;100524.81;5037018;28;1995;-78
2021/05/06 09:24:24;;;;;;;;;;;;;;;18.85;27.18;100543.31;5036446;28;2040;-78
2021/05/06 09:26:52;;;;;;;;;;;;;;;17.41;30.56;100538.03;5035748;28;1998;-78
2021/05/06 09:29:38;;;;;;;;;;;;;;;16.79;29.69;100542.66;5036001;28;1864;-78
2021/05/06 09:32:22;;;;;;;;;;;;;;;16.55;31.31;100544.16;5036300;28;876;-78
2021/05/06 09:34:52;;;;;;;;;;;;;;;19.58;26.80;100536.78;5035684;28;1907;-78
2021/05/06 09:37:21;;;;;;;;;;;;;;;20.85;24.52;100528.66;5034721;28;2100;-77
2021/05/06 09:40:02;;;;;;;;;;;;;;;21.27;22.81;100529.22;5035052;28;2027;-78
2021/05/06 09:42:39;;;;;;;;;;;;;;;22.42;21.93;100532.81;5036956;28;2298;-78
2021/05/06 09:45:07;;;;;;;;;;;;;;;24.21;20.18;100541.06;5036889;28;2120;-79
2021/05/06 09:47:32;;;;;;;;;;;;;;;24.42;21.45;100541.69;5037411;28;975;-79
2021/05/06 09:49:58;;;;;;;;;;;;;;;24.63;20.57;100535.44;5054794;28;1280;-78
2021/05/06 09:52:23;;;;;;;;;;;;;;;26.03;18.82;100519.63;5038319;28;923;-78
2021/05/06 09:54:54;;;;;;;;;;;;;;;21.86;19.86;100536.28;5039179;28;1875;-78
2021/05/06 09:57:28;;;;;;;;;;;;;;;16.74;26.51;100541.03;5035942;28;2214;-78
2021/05/06 10:00:18;;;;;;;;;;;;;;;16.10;29.83;100544.34;5036751;28;2089;-77
2021/05/06 10:02:46;;;;;;;;;;;;;;;21.44;25.05;100534.94;5035139;28;2132;-78
2021/05/06 10:05:15;;;;;;;;;;;;;;;23.31;22.67;100512.38;5035802;28;820;-78
2021/05/06 10:07:52;;;;;;;;;;;;;;;21.31;23.36;100532.75;5036916;28;1602;-79
2021/05/06 10:10:18;;;;;;;;;;;;;;;17.83;26.96;100548.34;5036254;28;1873;-79
2021/05/06 10:12:43;;;;;;;;;;;;;;;15.39;28.64;100530.66;5037536;28;1898;-78
2021/05/06 10:15:13;;;;;;;;;;;;;;;14.08;30.92;100543.44;5038508;28;885;-78
2021/05/06 10:17:38;;;;;;;;;;;;;;;14.15;31.80;100543.53;5038947;28;825;-78
2021/05/06 10:20:04;;;;;;;;;;;;;;;18.39;28.20;100526.31;5034712;28;2153;-78
2021/05/06 10:22:30;;;;;;;;;;;;;;;21.65;24.01;100519.81;5034231;28;1757;-79
2021/05/06 10:24:56;;;;;;;;;;;;;;;20.55;22.84;100523.78;5035642;28;2062;-78
2021/05/06 10:27:24;;;;;;;;;;;;;;;21.04;25.16;100529.97;5035661;28;1278;-78
2021/05/06 10:29:57;;;;;;;;;;;;;;;23.04;22.07;100529.47;5038344;28;1252;-78
2021/05/06 10:32:33;;;;;;;;;;;;;;;25.18;19.60;100518.44;5039771;28;1962;-78
2021/05/06 10:35:09;;;;;;;;;;;;;;;27.90;15.63;100505.81;5037909;28;2022;-76
2021/05/06 10:37:37;;;;;;;;;;;;;;;29.13;14.91;100498.16;5037464;28;2029;-77
2021/05/06 10:40:24;;;;;;;;;;;;;;;30.13;15.31;100500.81;5039765;28;2160;-79
2021/05/06 10:42:51;;;;;;;;;;;;;;;29.21;14.82;100494.50;5038814;28;1955;-78
2021/05/06 10:45:22;;;;;;;;;;;;;;;23.93;20.18;100506.78;5043948;28;2019;-78
2021/05/06 10:47:53;;;;;;;;;;;;;;;23.11;21.15;100508.84;5041582;28;1998;-78
2021/05/06 10:50:23;;;;;;;;;;;;;;;24.21;17.78;100499.53;5040007;28;956;-77
2021/05/06 10:52:51;;;;;;;;;;;;;;;25.38;16.35;100497.63;5038241;28;2092;-77
2021/05/06 10:55:56;;;;;;;;;;;;;;;26.37;15.85;100498.19;5037806;28;2156;-79
2021/05/06 10:58:27;;;;;;;;;;;;;;;27.23;16.64;100498.91;4981272;28;2066;-78
2021/05/06 11:01:12;;;;;;;;;;;;;;;23.99;17.23;100499.34;4979737;28;1156;-77
2021/05/06 11:03:38;;;;;;;;;;;;;;;21.92;19.99;100509.28;5006152;28;1290;-78
2021/05/06 11:06:04;;;;;;;;;;;;;;;19.02;23.91;100511.63;5025244;28;2047;-78
2021/05/06 11:08:34;;;;;;;;;;;;;;;17.25;26.09;100518.84;5042272;28;1221;-78
2021/05/06 11:10:59;;;;;;;;;;;;;;;15.90;29.10;100523.50;5039583;28;839;-78
2021/05/06 11:13:31;;;;;;;;;;;;;;;15.25;28.27;100525.00;5037436;28;1989;-77
2021/05/06 11:16:16;;;;;;;;;;;;;;;13.89;30.08;100531.28;5038051;28;840;-78
2021/05/06 11:18:49;;;;;;;;;;;;;;;12.56;33.43;100539.22;5036869;28;1887;-78
2021/05/06 11:21:29;;;;;;;;;;;;;;;11.14;38.66;100566.69;5037147;28;2065;-77
2021/05/06 11:24:11;;;;;;;;;;;;;;;9.44;47.98;100562.00;5037980;28;825;-77
2021/05/06 11:26:59;;;;;;;;;;;;;;;8.70;50.28;100570.84;5038262;28;995;-77
2021/05/06 11:29:28;;;;;;;;;;;;;;;8.13;52.62;100563.19;5037481;28;1289;-78
2021/05/06 11:31:54;;;;;;;;;;;;;;;7.97;52.78;100560.22;5035855;28;2177;-77
2021/05/06 11:34:32;;;;;;;;;;;;;;;8.04;53.81;100553.03;5037787;28;1932;-78
2021/05/06 11:37:12;;;;;;;;;;;;;;;8.15;52.77;100552.66;5037770;28;1989;-77
2021/05/06 11:39:52;;;;;;;;;;;;;;;8.37;53.11;100544.06;5035999;28;1213;-78
2021/05/06 11:42:29;;;;;;;;;;;;;;;8.93;50.91;100541.03;5037625;28;1452;-77
2021/05/06 11:45:04;;;;;;;;;;;;;;;9.67;46.51;100530.09;5034868;28;1764;-78
2021/05/06 11:47:30;;;;;;;;;;;;;;;9.93;46.77;100548.22;5037295;28;1203;-78
2021/05/06 11:49:55;;;;;;;;;;;;;;;10.20;43.61;100551.41;5037839;28;1311;-77
2021/05/06 11:52:33;;;;;;;;;;;;;;;10.41;44.67;100545.75;5037235;28;884;-78
2021/05/06 11:54:59;;;;;;;;;;;;;;;12.95;41.24;100553.03;5037306;28;931;-77
2021/05/06 11:57:25;;;;;;;;;;;;;;;16.66;34.51;100539.44;5037062;28;1923;-77
2021/05/06 11:59:50;;;;;;;;;;;;;;;16.60;33.61;100541.00;5035881;28;1904;-78
2021/05/06 12:02:16;;;;;;;;;;;;;;;15.53;36.03;100552.25;5037320;28;884;-78
2021/05/06 12:04:41;;;;;;;;;;;;;;;14.51;37.28;100557.91;5036772;28;2077;-77
2021/05/06 12:07:21;;;;;;;;;;;;;;;13.35;40.25;100565.66;5035381;28;1851;-77
2021/05/06 12:09:48;;;;;;;;;;;;;;;12.66;41.44;100560.78;5017001;28;1288;-78
2021/05/06 12:12:25;;;;;;;;;;;;;;;11.94;41.74;100553.72;5024287;28;2103;-77
2021/05/06 12:14:50;;;;;;;;;;;;;;;11.16;43.32;100558.88;5036895;28;1969;-78
2021/05/06 12:17:21;;;;;;;;;;;;;;;10.69;43.74;100562.31;5036867;28;901;-77
2021/05/06 12:19:48;;;;;;;;;;;;;;;10.53;44.33;100576.84;5036277;28;1280;-77
2021/05/06 12:22:14;;;;;;;;;;;;;;;10.46;44.84;100564.81;5036440;28;876;-78
2021/05/06 12:24:44;;;;;;;;;;;;;;;10.33;46.10;100569.59;5036442;28;2021;-78
2021/05/06 12:27:16;;;;;;;;;;;;;;;9.92;47.91;100574.19;5036636;28;860;-78
2021/05/06 12:29:42;;;;;;;;;;;;;;;9.39;49.41;100574.03;5036330;28;1185;-78
2021/05/06 12:32:22;;;;;;;;;;;;;;;9.21;50.68;100587.22;5037363;28;905;-78
2021/05/06 12:34:48;;;;;;;;;;;;;;;8.45;48.56;100578.19;5036862;28;1953;-77
2021/05/06 12:37:13;;;;;;;;;;;;;;;8.01;48.21;100580.41;5036925;28;1353;-78
2021/05/06 12:39:40;;;;;;;;;;;;;;;7.51;50.85;100570.97;5036132;28;1368;-77
2021/05/06 12:42:06;;;;;;;;;;;;;;;7.27;53.98;100569.59;5036559;28;825;-77
2021/05/06 12:44:38;;;;;;;;;;;;;;;7.11;53.02;100576.72;5037270;28;852;-77
2021/05/06 12:47:11;;;;;;;;;;;;;;;7.10;51.67;100575.13;5036760;28;897;-78
2021/05/06 12:49:36;;;;;;;;;;;;;;;7.20;53.48;100583.03;5036352;28;1162;-77
2021/05/06 12:52:01;;;;;;;;;;;;;;;7.44;52.63;100585.22;5036424;28;961;-77
2021/05/06 12:54:33;;;;;;;;;;;;;;;7.48;53.98;100594.41;5036684;28;1906;-77
2021/05/06 12:57:15;;;;;;;;;;;;;;;7.38;55.73;100593.97;5036807;28;860;-78
2021/05/06 12:59:48;;;;;;;;;;;;;;;7.62;55.75;100594.19;5036196;28;1784;-78
2021/05/06 13:02:15;;;;;;;;;;;;;;;7.71;56.03;100596.91;5037163;28;868;-78
2021/05/06 13:04:48;;;;;;;;;;;;;;;7.71;56.57;100592.19;5037042;28;855;-77
2021/05/06 13:07:18;;;;;;;;;;;;;;;8.01;56.41;100585.91;5036590;28;896;-77
2021/05/06 13:09:49;;;;;;;;;;;;;;;8.31;54.29;100594.16;5036223;28;1194;-77
2021/05/06 13:12:17;;;;;;;;;;;;;;;8.05;54.50;100584.13;5038327;28;1032;-78
2021/05/06 13:14:53;;;;;;;;;;;;;;;7.95;55.49;100593.53;5035963;28;2079;-78
2021/05/06 13:17:35;;;;;;;;;;;;;;;7.70;56.53;100603.53;5036987;28;909;-78
2021/05/06 13:20:22;;;;;;;;;;;;;;;7.72;57.08;100602.06;5036503;28;1178;-78
2021/05/06 13:23:06;;;;;;;;;;;;;;;7.84;57.51;100601.38;5036807;28;935;-78
2021/05/06 13:25:48;;;;;;;;;;;;;;;8.31;57.52;100603.19;5037160;28;853;-78
2021/05/06 13:28:19;;;;;;;;;;;;;;;8.83;56.47;100586.28;5036313;28;1197;-77
2021/05/06 13:30:46;;;;;;;;;;;;;;;10.13;53.63;100568.53;5036631;28;2004;-77
2021/05/06 13:33:21;;;;;;;;;;;;;;;11.20;50.35;100565.28;5037296;28;1887;-78
2021/05/06 13:36:06;;;;;;;;;;;;;;;13.09;47.71;100560.81;5036091;28;1192;-77
2021/05/06 13:38:55;;;;;;;;;;;;;;;14.02;42.80;100548.50;5036646;28;1193;-78
2021/05/06 13:41:30;;;;;;;;;;;;;;;14.44;40.33;100550.28;5024657;28;2152;-79
2021/05/06 13:43:57;;;;;;;;;;;;;;;15.57;39.33;100547.50;5036101;28;1449;-78
2021/05/06 13:46:24;;;;;;;;;;;;;;;16.57;36.40;100541.78;5037668;28;2086;-78
2021/05/06 13:48:50;;;;;;;;;;;;;;;16.88;35.89;100537.53;5035696;28;1193;-78
2021/05/06 13:51:17;;;;;;;;;;;;;;;17.21;33.51;100532.81;5036270;28;1994;-78
2021/05/06 13:53:45;;;;;;;;;;;;;;;16.21;33.59;100527.66;5036949;28;2227;-77
2021/05/06 13:56:11;;;;;;;;;;;;;;;16.20;34.00;100530.88;5035782;28;2082;-78
2021/05/06 13:58:37;;;;;;;;;;;;;;;16.05;34.45;100529.97;5051754;28;1189;-78
2021/05/06 14:01:04;;;;;;;;;;;;;;;15.85;33.80;100524.69;5037487;28;1976;-78
2021/05/06 14:03:30;;;;;;;;;;;;;;;16.89;34.26;100521.59;5040214;28;889;-78
2021/05/06 14:05:55;;;;;;;;;;;;;;;17.81;31.54;100516.47;5040697;28;1062;-77
2021/05/06 14:08:21;;;;;;;;;;;;;;;16.40;33.34;100507.06;5040652;28;1244;-78
2021/05/06 14:10:47;;;;;;;;;;;;;;;15.34;35.96;100512.34;5042493;28;861;-78
2021/05/06 14:13:17;;;;;;;;;;;;;;;15.77;36.70;100511.91;5041768;28;1894;-78
2021/05/06 14:15:42;;;;;;;;;;;;;;;15.62;37.10;100502.63;5041416;28;1096;-77
2021/05/06 14:18:08;;;;;;;;;;;;;;;13.72;37.82;100504.88;5041029;28;1182;-78
2021/05/06 14:20:34;;;;;;;;;;;;;;;12.00;41.54;100505.22;5040653;28;1068;-78
2021/05/06 14:23:00;;;;;;;;;;;;;;;11.24;43.28;100513.66;5040187;28;842;-78
2021/05/06 14:25:26;;;;;;;;;;;;;;;10.57;45.50;100509.91;5039281;28;2067;-78
2021/05/06 14:27:52;;;;;;;;;;;;;;;10.11;46.03;100508.19;5040628;28;852;-78
2021/05/06 14:30:18;;;;;;;;;;;;;;;10.02;46.62;100510.28;5041498;28;2453;-77
2021/05/06 14:32:43;;;;;;;;;;;;;;;10.08;46.56;100500.59;5041454;28;1875;-78
2021/05/06 14:35:09;;;;;;;;;;;;;;;10.16;47.18;100507.94;5039332;28;2212;-77
2021/05/06 14:37:35;;;;;;;;;;;;;;;10.24;46.66;100506.19;5039552;28;883;-78
2021/05/06 14:40:00;;;;;;;;;;;;;;;10.01;48.35;100497.63;5048024;28;1900;-77
2021/05/06 14:42:26;;;;;;;;;;;;;;;9.78;48.59;100492.63;5035431;28;2214;-78
2021/05/06 14:44:51;;;;;;;;;;;;;;;10.02;47.30;100490.97;5041204;28;2210;-78
2021/05/06 14:47:17;;;;;;;;;;;;;;;10.76;46.73;100489.91;5038326;28;1829;-77
2021/05/06 14:49:42;;;;;;;;;;;;;;;11.57;44.18;100484.84;5036686;28;2478;-77
2021/05/06 14:52:08;;;;;;;;;;;;;;;12.33;41.80;100475.47;5040032;28;916;-77
2021/05/06 14:54:33;;;;;;;;;;;;;;;12.07;42.46;100476.09;5038894;28;2289;-77
2021/05/06 14:56:58;;;;;;;;;;;;;;;12.20;42.32;100470.06;5035346;28;3079;-78
2021/05/06 14:59:24;;;;;;;;;;;;;;;12.88;40.14;100472.56;5039459;28;1303;-78
2021/05/06 15:01:49;;;;;;;;;;;;;;;13.07;39.78;100466.94;5036183;28;2483;-77
2021/05/06 15:04:15;;;;;;;;;;;;;;;13.55;40.77;100469.34;5038577;28;1887;-76
2021/05/06 15:06:40;;;;;;;;;;;;;;;13.48;38.89;100460.91;5038928;28;2462;-77
2021/05/06 15:09:06;;;;;;;;;;;;;;;13.58;39.07;100465.00;5041618;28;3318;-78
2021/05/06 15:11:33;;;;;;;;;;;;;;;13.72;38.71;100459.66;5039783;28;2945;-78
2021/05/06 15:13:59;;;;;;;;;;;;;;;13.57;39.94;100458.66;5042224;28;2906;-77
2021/05/06 15:16:24;;;;;;;;;;;;;;;13.07;39.48;100452.28;5061080;28;2240;-77
2021/05/06 15:18:50;;;;;;;;;;;;;;;12.51;41.56;100445.34;5040048;28;2214;-76
2021/05/06 15:21:15;;;;;;;;;;;;;;;12.13;42.09;100447.78;5054719;28;2148;-78
2021/05/06 15:23:41;;;;;;;;;;;;;;;12.25;43.60;100457.09;5045502;28;1055;-78
2021/05/06 15:26:06;;;;;;;;;;;;;;;12.47;41.07;100447.25;5039662;28;2583;-77
2021/05/06 15:28:31;;;;;;;;;;;;;;;12.31;42.65;100445.38;5044125;28;2702;-77
2021/05/06 15:30:58;;;;;;;;;;;;;;;12.48;42.31;100443.31;5045430;28;1052;-78
2021/05/06 15:33:23;;;;;;;;;;;;;;;12.30;41.04;100446.56;5046745;28;1894;-78
2021/05/06 15:35:48;;;;;;;;;;;;;;;12.08;41.32;100444.47;5043768;28;2212;-77
2021/05/06 15:38:16;;;;;;;;;;;;;;;11.72;42.53;100433.44;5040914;28;1836;-78
2021/05/06 15:40:42;;;;;;;;;;;;;;;12.12;42.62;100437.06;5040379;28;1978;-79
2021/05/06 15:43:08;;;;;;;;;;;;;;;12.26;42.38;100439.34;5034452;28;1910;-79
2021/05/06 15:45:34;;;;;;;;;;;;;;;12.62;41.28;100434.50;5041090;28;1021;-79
2021/05/06 15:48:00;;;;;;;;;;;;;;;12.71;41.53;100433.06;5041854;28;2003;-78
2021/05/06 15:50:25;;;;;;;;;;;;;;;12.60;41.53;100429.31;5038689;28;2089;-78
2021/05/06 15:52:50;;;;;;;;;;;;;;;12.34;40.78;100438.31;5040272;28;2078;-78
2021/05/06 15:55:16;;;;;;;;;;;;;;;12.05;41.93;100434.97;5043595;28;2130;-79
2021/05/06 15:57:43;;;;;;;;;;;;;;;12.10;41.78;100429.13;5042739;28;2265;-78
2021/05/06 16:00:11;;;;;;;;;;;;;;;12.04;41.85;100433.34;5040614;28;1209;-81
2021/05/06 16:02:37;;;;;;;;;;;;;;;11.89;41.77;100432.22;5042003;28;1873;-78
2021/05/06 16:05:05;;;;;;;;;;;;;;;11.74;43.61;100428.34;5040452;28;2805;-78
2021/05/06 16:07:31;;;;;;;;;;;;;;;11.73;43.19;100432.28;5041283;28;2000;-79
2021/05/06 16:09:56;;;;;;;;;;;;;;;11.59;43.98;100434.72;5040430;28;2055;-78
2021/05/06 16:12:21;;;;;;;;;;;;;;;11.39;43.67;100431.13;5040359;28;1957;-78
2021/05/06 16:14:47;;;;;;;;;;;;;;;10.68;44.50;100428.97;5040766;28;1890;-78